Arlington, Texas
Current Conditions -  °F | °C
As of 9:35 PM on Saturday 22 Nov 2014 (Local Time) from KGPM Reporting Station
Clear Clear  
Wind Chill: 57°   Ceiling: Unl
Heat Index: 57°   Visibility: 10mi
Dew Point: 57°   Wind: 6mph
Humidity: 100%   Direction: 170°S
Pressure: 29.78"   Gusts: NA
Location:  32.74°N, 97.11°W
Report Text: KGPM 230335Z AUTO 17005KT 10SM CLR 14/14 A2978 RMK AO2 T01400140
Loading
Personal Weather Stations






























Interactive Weather Map New forecast layout! Learn more

10-Day Weather Forecast

Advertisements
Track Severe Weather on mobile